Data for 10/05/2005

Time Sea-Level Adjusted Pressure Absolute Pressure Temperature Relative Humidity Dew Point   
(mb) (inHg) (mb) (inHg) (C) (F) (%) (C) (F)
00:05 1025 30.27 855 25.25 0.3 32.5 98 0 32
00:10 1025 30.27 855 25.25 0.3 32.6 98 0.1 32.1
00:15 1025 30.27 855 25.25 0.3 32.5 98 0 32
00:20 1025 30.27 855 25.25 0.3 32.6 98 0.1 32.1
00:25 1025 30.27 855 25.25 0.3 32.5 98 -0 32
00:30 1025 30.27 855 25.25 0.2 32.4 98 -0 31.9
00:35 1025 30.27 855 25.25 0.2 32.4 98 -0 31.9
00:40 1026 30.3 855 25.25 0.3 32.5 98 -0 32
00:45 1026 30.3 855 25.25 0.2 32.4 98 -0.1 31.9
00:50 1026 30.3 855 25.25 0.2 32.4 98 -0 31.9
00:55 1026 30.3 855 25.25 0.2 32.3 98 -0.1 31.8
01:00 1026 30.3 855 25.25 0.2 32.3 98 -0.2 31.7
01:05 1026 30.3 855 25.25 0.1 32.2 98 -0.2 31.6
01:10 1026 30.3 855 25.25 0.2 32.3 98 -0.1 31.7
01:15 1026 30.3 855 25.25 0.2 32.3 98 -0.1 31.8
01:20 1026 30.3 855 25.25 0.2 32.3 98 -0.1 31.8
01:25 1026 30.3 855 25.25 0.1 32.2 98 -0.1 31.7
01:30 1026 30.3 855 25.25 0.1 32.2 98 -0.1 31.8
01:35 1026 30.3 855 25.25 0.1 32.3 98 -0.1 31.8
01:40 1026 30.3 855 25.25 0.1 32.2 98 -0.2 31.6
01:45 1026 30.3 855 25.25 0.1 32.1 98 -0.2 31.7
01:50 1026 30.3 855 25.25 0.1 32.2 98 -0.2 31.7
01:55 1026 30.3 855 25.25 0 32.1 98 -0.2 31.6
02:00 1026 30.3 855 25.25 0.1 32.2 98 -0.2 31.7
02:05 1026 30.3 855 25.25 0.1 32.1 98 -0.2 31.7
02:10 1026 30.3 855 25.25 0 32 98 -0.2 31.6
02:15 1026 30.3 855 25.25 0.1 32.1 98 -0.2 31.7
02:20 1026 30.3 855 25.25 0 32 98 -0.2 31.6
02:25 1026 30.3 855 25.25 0 32.1 98 -0.2 31.6
02:30 1026 30.3 855 25.25 0 32 98 -0.2 31.6
02:35 1026 30.3 855 25.25 -0.1 31.9 98 -0.3 31.5
02:40 1026 30.3 855 25.25 0 32 98 -0.2 31.6
02:45 1026 30.3 856 25.28 0 32 98 -0.3 31.5
02:50 1026 30.3 856 25.28 -0 32 98 -0.2 31.6
02:55 1026 30.3 856 25.28 0 32 98 -0.3 31.5
03:00 1026 30.3 856 25.28 -0 32 98 -0.3 31.5
03:05 1026 30.3 856 25.28 -0 32 98 -0.3 31.5
03:10 1026 30.3 856 25.28 -0 32 98 -0.3 31.4
03:15 1027 30.33 856 25.28 -0.1 31.8 98 -0.4 31.3
03:20 1027 30.33 856 25.28 -0.1 31.7 98 -0.4 31.3
03:25 1027 30.33 856 25.28 -0 32 98 -0.3 31.4
03:30 1027 30.33 856 25.28 -0.1 31.8 98 -0.4 31.3
03:35 1027 30.33 856 25.28 -0.1 31.9 98 -0.4 31.3
03:40 1027 30.33 856 25.28 -0.1 31.8 98 -0.4 31.2
03:45 1027 30.33 856 25.28 -0.1 31.9 97 -0.4 31.3
03:50 1027 30.33 856 25.28 -0.1 31.9 97 -0.5 31.2
03:55 1027 30.33 856 25.28 -0.1 31.9 98 -0.4 31.2
04:00 1027 30.33 856 25.28 -0.2 31.7 97 -0.6 30.9
04:05 1027 30.33 856 25.28 -0.3 31.5 98 -0.6 30.9
04:10 1027 30.33 856 25.28 -0.3 31.4 98 -0.7 30.8
04:15 1027 30.33 856 25.28 -0.3 31.4 98 -0.7 30.8
04:20 1027 30.33 856 25.28 -0.3 31.4 97 -0.7 30.7
04:25 1027 30.33 856 25.28 -0.3 31.4 97 -0.8 30.6
04:30 1027 30.33 856 25.28 -0.4 31.2 97 -0.8 30.5
04:35 1027 30.33 856 25.28 -0.5 31.2 97 -0.9 30.5
04:40 1027 30.33 856 25.28 -0.5 31.1 97 -0.9 30.4
04:45 1027 30.33 856 25.28 -0.4 31.3 97 -0.8 30.6
04:50 1027 30.33 856 25.28 -0.2 31.6 97 -0.7 30.7
04:55 1027 30.33 856 25.28 -0.2 31.7 95 -0.8 30.5
05:00 1027 30.33 856 25.28 -0.2 31.6 96 -0.8 30.6
05:05 1027 30.33 856 25.28 -0.3 31.5 96 -0.9 30.4
05:10 1027 30.33 856 25.28 -0.5 31.2 97 -0.9 30.3
05:15 1027 30.33 856 25.28 -0.5 31 97 -1 30.3
05:20 1027 30.33 856 25.28 -0.5 31.1 97 -0.9 30.4
05:25 1027 30.33 857 25.31 -0.4 31.3 97 -0.9 30.4
05:30 1027 30.33 857 25.31 -0.3 31.4 97 -0.8 30.6
05:35 1027 30.33 857 25.31 -0.3 31.5 96 -0.8 30.6
05:40 1027 30.33 857 25.31 -0.3 31.5 96 -0.9 30.4
05:45 1027 30.33 857 25.31 -0.4 31.3 96 -0.9 30.3
05:50 1027 30.33 857 25.31 -0.4 31.3 96 -0.9 30.3
05:55 1027 30.33 857 25.31 -0.3 31.4 96 -0.9 30.4
06:00 1028 30.36 857 25.31 -0.2 31.6 96 -0.8 30.5
06:05 1028 30.36 857 25.31 -0.2 31.6 94 -1 30.2
06:10 1028 30.36 857 25.31 -0.3 31.5 94 -1.1 30.1
06:15 1028 30.36 857 25.31 -0.2 31.6 94 -1 30.2
06:20 1028 30.36 857 25.31 -0 32 94 -0.9 30.4
06:25 1028 30.36 857 25.31 0.1 32.2 93 -1 30.3
06:30 1028 30.36 857 25.31 0.1 32.1 93 -1 30.2
06:35 1028 30.36 857 25.31 0 32.1 92 -1.1 30.1
06:40 1028 30.36 857 25.31 0 32 93 -1 30.3
06:45 1028 30.36 857 25.31 0.1 32.2 92 -1 30.2
06:50 1028 30.36 857 25.31 0.2 32.3 92 -1 30.2
06:55 1028 30.36 857 25.31 0.2 32.4 91 -1 30.1
07:00 1028 30.36 857 25.31 0.1 32.1 93 -1 30.2
07:05 1028 30.36 857 25.31 -0 32 94 -0.9 30.4
07:10 1028 30.36 857 25.31 -0.2 31.7 95 -0.9 30.3
07:15 1028 30.36 857 25.31 -0.2 31.7 95 -0.8 30.5
07:20 1028 30.36 857 25.31 -0.3 31.5 95 -0.9 30.3
07:25 1028 30.36 857 25.31 -0.3 31.5 96 -0.9 30.4
07:30 1028 30.36 857 25.31 -0.4 31.3 97 -0.9 30.5
07:35 1028 30.36 857 25.31 -0.4 31.3 97 -0.9 30.4
07:40 1028 30.36 857 25.31 -0.4 31.3 96 -0.9 30.3
07:45 1028 30.36 857 25.31 -0.3 31.4 97 -0.8 30.6
07:50 1028 30.36 857 25.31 -0.3 31.5 96 -0.8 30.5
07:55 1028 30.36 857 25.31 -0.4 31.3 96 -0.9 30.4
08:00 1028 30.36 857 25.31 -0.3 31.5 96 -0.8 30.6
08:05 1028 30.36 857 25.31 -0.3 31.4 96 -1 30.3
08:10 1028 30.36 857 25.31 -0.3 31.5 96 -0.9 30.4
08:15 1028 30.36 857 25.31 -0.1 31.8 95 -0.8 30.6
08:20 1028 30.36 857 25.31 0.2 32.4 93 -0.7 30.7
08:25 1028 30.36 857 25.31 0.4 32.6 94 -0.5 31.1
08:30 1028 30.36 857 25.31 0.6 33 92 -0.5 31
08:35 1028 30.36 857 25.31 0.9 33.6 89 -0.8 30.6
08:40 1028 30.36 857 25.31 0.7 33.3 90 -0.8 30.6
08:45 1028 30.36 857 25.31 0.7 33.3 90 -0.8 30.6
08:50 1028 30.36 857 25.31 0.7 33.3 90 -0.7 30.7
08:55 1028 30.36 857 25.31 0.7 33.3 90 -0.7 30.7
09:00 1028 30.36 857 25.31 0.6 33.1 90 -0.8 30.5
09:05 1028 30.36 857 25.31 0.8 33.5 92 -0.4 31.3
09:10 1028 30.36 857 25.31 1.1 34 89 -0.5 31.1
09:15 1028 30.36 857 25.31 1.2 34.1 89 -0.5 31.2
09:20 1028 30.36 858 25.34 1.4 34.5 86 -0.6 30.8
09:25 1028 30.36 858 25.34 1.5 34.7 83 -1.1 30
09:30 1028 30.36 858 25.34 2.4 36.3 80 -0.8 30.6
09:35 1028 30.36 858 25.34 2.9 37.2 81 0 32.1
09:40 1028 30.36 858 25.34 2.5 36.5 82 -0.3 31.5
09:45 1028 30.36 858 25.34 2.2 36 84 -0.1 31.7
09:50 1028 30.36 858 25.34 2.5 36.5 82 -0.3 31.5
09:55 1028 30.36 858 25.34 2.8 37 82 -0.1 31.9
10:00 1028 30.36 858 25.34 2.8 37.1 82 0.1 32.1
10:05 1028 30.36 858 25.34 2.9 37.3 81 -0.1 31.9
10:10 1028 30.36 858 25.34 2.7 36.8 83 0.1 32.2
10:15 1028 30.36 858 25.34 2.7 36.9 82 -0 32
10:20 1029 30.39 858 25.34 2.5 36.5 82 -0.2 31.6
10:25 1029 30.39 858 25.34 2.5 36.6 81 -0.3 31.4
10:30 1029 30.39 858 25.34 2.2 35.9 81 -0.8 30.5
10:35 1029 30.39 858 25.34 2.5 36.6 83 -0 31.9
10:40 1029 30.39 858 25.34 2.8 37 79 -0.5 31
10:45 1029 30.39 858 25.34 3.2 37.7 79 -0.2 31.7
10:50 1029 30.39 858 25.34 3.7 38.6 77 -0.1 31.9
10:55 1029 30.39 858 25.34 3.3 37.9 80 0.2 32.3
11:00 1029 30.39 858 25.34 3.3 38 80 0.2 32.3
11:05 1029 30.39 858 25.34 4.2 39.5 73 -0.3 31.4
11:10 1029 30.39 858 25.34 4.4 39.9 73 0 32
11:15 1028 30.36 858 25.34 4.9 40.8 72 0.2 32.4
11:20 1028 30.36 858 25.34 4.7 40.5 74 0.5 32.9
11:25 1029 30.39 858 25.34 4.2 39.5 73 -0.3 31.5
11:30 1029 30.39 858 25.34 5.1 41.1 69 -0.1 31.7
11:35 1029 30.39 858 25.34 5.4 41.8 69 0.2 32.3
11:40 1029 30.39 858 25.34 3.9 39 81 0.9 33.6
11:45 1029 30.39 858 25.34 3.3 38 80 0.2 32.4
11:50 1029 30.39 858 25.34 4 39.2 77 0.4 32.7
11:55 1029 30.39 858 25.34 4 39.3 77 0.4 32.7
12:00 1029 30.39 858 25.34 3.4 38.1 79 0.1 32.2
12:05 1029 30.39 858 25.34 3.2 37.8 80 0 32.1
12:10 1029 30.39 858 25.34 3.4 38.2 79 0.2 32.3
12:15 1028 30.36 858 25.34 3.8 38.8 78 0.3 32.5
12:20 1028 30.36 858 25.34 3.6 38.4 82 0.8 33.5
12:25 1028 30.36 858 25.34 3.7 38.6 80 0.6 33.1
12:30 1028 30.36 858 25.34 4.3 39.8 75 0.3 32.6
12:35 1028 30.36 858 25.34 4.1 39.4 74 -0.2 31.7
12:40 1028 30.36 858 25.34 4.6 40.2 73 0.2 32.3
12:45 1028 30.36 857 25.31 4.9 40.7 71 -0 32
12:50 1028 30.36 857 25.31 5.2 41.3 70 0.2 32.4
12:55 1028 30.36 857 25.31 5 40.9 70 -0.1 31.8
13:00 1028 30.36 857 25.31 5.2 41.4 70 0.1 32.3
13:05 1028 30.36 857 25.31 5.6 42.2 67 -0 31.9
13:10 1028 30.36 857 25.31 6.4 43.4 65 0.3 32.5
13:15 1028 30.36 857 25.31 6 42.9 64 -0.3 31.4
13:20 1028 30.36 857 25.31 5.1 41.3 70 0.2 32.4
13:25 1028 30.36 857 25.31 5.4 41.8 67 -0.3 31.5
13:30 1028 30.36 857 25.31 5.6 42 66 -0.2 31.6
13:35 1028 30.36 857 25.31 5.8 42.5 67 0.2 32.3
13:40 1028 30.36 857 25.31 5.6 42.1 66 -0.2 31.7
13:45 1028 30.36 857 25.31 5.4 41.8 63 -1 30.3
13:50 1028 30.36 857 25.31 5.7 42.3 62 -1 30.1
13:55 1028 30.36 857 25.31 5.9 42.6 66 0.2 32.3
14:00 1028 30.36 857 25.31 6.2 43.1 60 -1 30.2
14:05 1028 30.36 857 25.31 5.9 42.5 60 -1.2 29.8
14:10 1028 30.36 857 25.31 5.3 41.6 62 -1.4 29.5
14:15 1028 30.36 857 25.31 5 41 64 -1.2 29.8
14:20 1028 30.36 857 25.31 5.2 41.4 63 -1.2 29.8
14:25 1028 30.36 857 25.31 5.5 41.9 61 -1.4 29.5
14:30 1028 30.36 857 25.31 5.3 41.5 61 -1.6 29.1
14:35 1028 30.36 857 25.31 5.5 41.9 64 -0.7 30.8
14:40 1028 30.36 857 25.31 5.8 42.4 64 -0.4 31.3
14:45 1028 30.36 857 25.31 5.6 42.1 61 -1.4 29.5
14:50 1028 30.36 857 25.31 5.3 41.5 61 -1.6 29.1
14:55 1028 30.36 857 25.31 5.6 42 62 -1.2 29.8
15:00 1028 30.36 857 25.31 5.9 42.6 60 -1.3 29.7
15:05 1028 30.36 857 25.31 6.2 43.2 62 -0.5 31.1
15:10 1028 30.36 857 25.31 6.3 43.4 61 -0.7 30.8
15:15 1028 30.36 857 25.31 6.2 43.2 60 -1.1 30.1
15:20 1027 30.33 857 25.31 5.5 41.8 63 -1 30.1
15:25 1027 30.33 857 25.31 5.4 41.6 65 -0.6 31
15:30 1027 30.33 857 25.31 5.9 42.5 63 -0.6 30.9
15:35 1027 30.33 857 25.31 5.6 42.1 64 -0.6 31
15:40 1027 30.33 857 25.31 6.3 43.4 63 -0.3 31.5
15:45 1027 30.33 857 25.31 6 42.8 62 -0.8 30.6
15:50 1027 30.33 857 25.31 5.9 42.6 62 -0.8 30.6
15:55 1027 30.33 857 25.31 5.8 42.4 66 -0.2 31.7
16:00 1027 30.33 857 25.31 6.6 43.8 59 -0.9 30.4
16:05 1027 30.33 857 25.31 5.8 42.4 64 -0.4 31.2
16:10 1027 30.33 856 25.28 5.8 42.4 63 -0.8 30.6
16:15 1027 30.33 856 25.28 6.8 44.2 60 -0.4 31.2
16:20 1027 30.33 856 25.28 7 44.5 59 -0.4 31.3
16:25 1027 30.33 856 25.28 6.6 43.9 62 -0 31.9
16:30 1027 30.33 856 25.28 6.8 44.2 62 -0.1 31.8
16:35 1027 30.33 856 25.28 7 44.6 58 -0.7 30.8
16:40 1027 30.33 856 25.28 6.5 43.7 60 -0.6 30.9
16:45 1027 30.33 856 25.28 6.6 43.9 59 -0.7 30.7
16:50 1027 30.33 856 25.28 6.1 43 62 -0.7 30.7
16:55 1027 30.33 856 25.28 6 42.7 61 -1 30.1
17:00 1027 30.33 856 25.28 6.2 43.2 60 -1 30.1
17:05 1027 30.33 856 25.28 6.3 43.3 61 -0.7 30.7
17:10 1027 30.33 856 25.28 6.1 42.9 59 -1.4 29.5
17:15 1027 30.33 856 25.28 5.7 42.2 61 -1.3 29.7
17:20 1027 30.33 856 25.28 5.8 42.4 59 -1.5 29.3
17:25 1027 30.33 856 25.28 5.8 42.4 59 -1.5 29.2
17:30 1027 30.33 856 25.28 5.7 42.2 59 -1.6 29.1
17:35 1027 30.33 856 25.28 5.6 42.1 59 -1.7 28.9
17:40 1027 30.33 856 25.28 5.7 42.3 62 -1 30.2
17:45 1027 30.33 856 25.28 6.4 43.4 60 -0.8 30.5
17:50 1027 30.33 856 25.28 5.9 42.7 63 -0.7 30.8
17:55 1027 30.33 856 25.28 5.6 42.1 63 -0.9 30.4
18:00 1027 30.33 856 25.28 5.6 42.1 63 -0.9 30.5
18:05 1027 30.33 856 25.28 5.8 42.4 62 -0.9 30.4
18:10 1027 30.33 856 25.28 5.7 42.3 62 -1 30.2
18:15 1027 30.33 856 25.28 5.6 42.1 66 -0.3 31.5
18:20 1027 30.33 856 25.28 5.4 41.7 70 0.3 32.6
18:25 1027 30.33 856 25.28 5.2 41.4 72 0.6 33
18:30 1027 30.33 856 25.28 5.1 41.2 73 0.7 33.2
18:35 1027 30.33 856 25.28 4.7 40.5 75 0.7 33.3
18:40 1027 30.33 856 25.28 4.3 39.8 78 0.9 33.6
18:45 1027 30.33 856 25.28 4 39.1 80 0.8 33.4
18:50 1027 30.33 856 25.28 4 39.2 79 0.7 33.3
18:55 1027 30.33 856 25.28 3.7 38.6 81 0.8 33.4
19:00 1027 30.33 856 25.28 3.1 37.6 84 0.6 33.1
19:05 1026 30.3 856 25.28 3 37.4 84 0.5 32.9
19:10 1026 30.3 856 25.28 2.8 37 86 0.6 33.1
19:15 1026 30.3 856 25.28 2.5 36.5 86 0.4 32.7
19:20 1026 30.3 856 25.28 2.5 36.5 86 0.4 32.8
19:25 1027 30.33 856 25.28 2.2 36 88 0.4 32.7
19:30 1027 30.33 856 25.28 2 35.7 87 0.1 32.2
19:35 1027 30.33 856 25.28 1.9 35.4 88 0.1 32.2
19:40 1027 30.33 856 25.28 1.8 35.3 86 -0.2 31.6
19:45 1026 30.3 856 25.28 1.9 35.3 85 -0.4 31.4
19:50 1026 30.3 856 25.28 2.1 35.8 83 -0.5 31.1
19:55 1026 30.3 856 25.28 2 35.5 86 -0.1 31.8
20:00 1026 30.3 856 25.28 1.7 35.1 89 0.1 32.1
20:05 1026 30.3 856 25.28 1.8 35.2 89 0.2 32.3
20:10 1026 30.3 856 25.28 1.9 35.5 88 0.2 32.4
20:15 1026 30.3 855 25.25 2 35.6 86 -0 31.9
20:20 1026 30.3 855 25.25 2.2 36 85 -0 32
20:25 1026 30.3 855 25.25 2.3 36.1 85 0 32
20:30 1026 30.3 855 25.25 2.2 36 86 0.1 32.1
20:35 1026 30.3 855 25.25 2.2 36 86 0.2 32.3
20:40 1026 30.3 855 25.25 2.1 35.7 87 0.1 32.3
20:45 1026 30.3 855 25.25 2 35.6 88 0.1 32.3
20:50 1026 30.3 855 25.25 2 35.5 88 0.2 32.4
20:55 1026 30.3 855 25.25 1.9 35.3 88 0.1 32.1
21:00 1026 30.3 855 25.25 1.8 35.3 88 0 32
21:05 1026 30.3 855 25.25 1.9 35.4 87 -0 32
21:10 1026 30.3 855 25.25 1.9 35.3 87 -0.1 31.8
21:15 1026 30.3 855 25.25 1.9 35.4 87 -0.1 31.8
21:20 1026 30.3 855 25.25 1.8 35.3 86 -0.2 31.6
21:25 1026 30.3 855 25.25 1.8 35.2 86 -0.3 31.5
21:30 1026 30.3 855 25.25 1.8 35.2 86 -0.3 31.4
21:35 1026 30.3 855 25.25 1.9 35.4 85 -0.3 31.4
21:40 1026 30.3 855 25.25 1.8 35.2 86 -0.3 31.4
21:45 1026 30.3 855 25.25 1.7 35.1 86 -0.4 31.3
21:50 1026 30.3 855 25.25 1.8 35.2 86 -0.4 31.3
21:55 1026 30.3 855 25.25 1.7 35.1 86 -0.4 31.3
22:00 1026 30.3 855 25.25 1.7 35.1 86 -0.4 31.2
22:05 1026 30.3 855 25.25 1.7 35 86 -0.4 31.2
22:10 1026 30.3 855 25.25 1.7 35 86 -0.4 31.2
22:15 1026 30.3 855 25.25 1.8 35.2 86 -0.4 31.2
22:20 1026 30.3 855 25.25 1.6 34.9 86 -0.5 31.2
22:25 1026 30.3 855 25.25 1.6 34.9 86 -0.5 31.2
22:30 1026 30.3 855 25.25 1.6 34.9 86 -0.5 31.1
22:35 1026 30.3 855 25.25 1.6 34.8 86 -0.5 31
22:40 1026 30.3 855 25.25 1.6 34.8 85 -0.6 30.9
22:45 1026 30.3 855 25.25 1.6 34.9 86 -0.5 31
22:50 1026 30.3 855 25.25 1.7 35 85 -0.5 31.1
22:55 1026 30.3 855 25.25 1.6 34.9 86 -0.5 31.1
23:00 1026 30.3 855 25.25 1.6 34.9 86 -0.6 31
23:05 1025 30.27 855 25.25 1.6 34.8 86 -0.5 31
23:10 1026 30.3 855 25.25 1.5 34.7 86 -0.6 31
23:15 1025 30.27 855 25.25 1.5 34.6 86 -0.6 30.9
23:20 1025 30.27 855 25.25 1.4 34.4 87 -0.5 31.1
23:25 1025 30.27 855 25.25 1.3 34.3 87 -0.6 30.9
23:30 1025 30.27 855 25.25 1.3 34.3 87 -0.6 30.9
23:35 1025 30.27 855 25.25 1.3 34.3 87 -0.6 30.9
23:40 1025 30.27 855 25.25 1.3 34.4 87 -0.6 30.9
23:45 1025 30.27 855 25.25 1.4 34.5 86 -0.6 30.9
23:50 1025 30.27 855 25.25 1.5 34.6 86 -0.7 30.8
23:55 1025 30.27 855 25.25 1.4 34.6 86 -0.7 30.7
24:00 1025 30.27 854 25.22 1.5 34.7 85 -0.7 30.7